sensor_id;sensor_type;location;lat;lon;timestamp;P1;durP1;ratioP1;P2;durP2;ratioP2
19747;SDS011;10032;51.386;12.516;2023-08-17T00:02:21;5.90;;;4.95;;
19747;SDS011;10032;51.386;12.516;2023-08-17T00:04:47;5.95;;;5.35;;
19747;SDS011;10032;51.386;12.516;2023-08-17T00:07:12;6.15;;;5.38;;
19747;SDS011;10032;51.386;12.516;2023-08-17T00:09:38;9.32;;;5.32;;
19747;SDS011;10032;51.386;12.516;2023-08-17T00:12:04;5.55;;;5.05;;
19747;SDS011;10032;51.386;12.516;2023-08-17T00:14:30;5.93;;;5.32;;
19747;SDS011;10032;51.386;12.516;2023-08-17T00:16:55;5.38;;;4.63;;
19747;SDS011;10032;51.386;12.516;2023-08-17T00:19:21;5.50;;;4.90;;
19747;SDS011;10032;51.386;12.516;2023-08-17T00:21:46;4.88;;;4.38;;
19747;SDS011;10032;51.386;12.516;2023-08-17T00:24:12;6.13;;;5.53;;
19747;SDS011;10032;51.386;12.516;2023-08-17T00:26:37;6.22;;;4.53;;
19747;SDS011;10032;51.386;12.516;2023-08-17T00:29:03;5.97;;;4.78;;
19747;SDS011;10032;51.386;12.516;2023-08-17T00:31:29;6.75;;;4.57;;
19747;SDS011;10032;51.386;12.516;2023-08-17T00:33:54;5.90;;;4.97;;
19747;SDS011;10032;51.386;12.516;2023-08-17T00:36:20;4.80;;;4.40;;
19747;SDS011;10032;51.386;12.516;2023-08-17T00:38:45;5.40;;;4.90;;
19747;SDS011;10032;51.386;12.516;2023-08-17T00:41:11;5.55;;;5.00;;
19747;SDS011;10032;51.386;12.516;2023-08-17T00:43:36;6.10;;;5.50;;
19747;SDS011;10032;51.386;12.516;2023-08-17T00:46:01;6.93;;;5.20;;
19747;SDS011;10032;51.386;12.516;2023-08-17T00:48:27;6.22;;;5.35;;
19747;SDS011;10032;51.386;12.516;2023-08-17T00:50:56;7.70;;;5.60;;
19747;SDS011;10032;51.386;12.516;2023-08-17T00:53:23;6.03;;;5.28;;
19747;SDS011;10032;51.386;12.516;2023-08-17T00:55:52;5.43;;;4.85;;
19747;SDS011;10032;51.386;12.516;2023-08-17T00:58:18;5.22;;;4.72;;
19747;SDS011;10032;51.386;12.516;2023-08-17T01:00:45;5.47;;;4.53;;
19747;SDS011;10032;51.386;12.516;2023-08-17T01:03:10;5.90;;;5.35;;
19747;SDS011;10032;51.386;12.516;2023-08-17T01:05:36;5.68;;;5.07;;
19747;SDS011;10032;51.386;12.516;2023-08-17T01:08:02;5.45;;;4.43;;
19747;SDS011;10032;51.386;12.516;2023-08-17T01:10:37;6.03;;;5.43;;
19747;SDS011;10032;51.386;12.516;2023-08-17T01:13:14;5.05;;;4.55;;
19747;SDS011;10032;51.386;12.516;2023-08-17T01:15:49;5.95;;;5.35;;
19747;SDS011;10032;51.386;12.516;2023-08-17T01:18:29;4.60;;;4.20;;
19747;SDS011;10032;51.386;12.516;2023-08-17T01:20:56;5.63;;;5.13;;
19747;SDS011;10032;51.386;12.516;2023-08-17T01:23:22;5.75;;;5.18;;
19747;SDS011;10032;51.386;12.516;2023-08-17T01:25:47;5.97;;;5.35;;
19747;SDS011;10032;51.386;12.516;2023-08-17T01:28:13;5.82;;;5.22;;
19747;SDS011;10032;51.386;12.516;2023-08-17T01:31:12;7.32;;;5.00;;
19747;SDS011;10032;51.386;12.516;2023-08-17T01:33:46;6.20;;;4.88;;
19747;SDS011;10032;51.386;12.516;2023-08-17T01:36:27;6.10;;;5.50;;
19747;SDS011;10032;51.386;12.516;2023-08-17T01:39:00;6.55;;;4.82;;
19747;SDS011;10032;51.386;12.516;2023-08-17T01:41:28;5.30;;;4.75;;
19747;SDS011;10032;51.386;12.516;2023-08-17T01:43:55;5.68;;;5.18;;
19747;SDS011;10032;51.386;12.516;2023-08-17T01:46:22;5.28;;;4.78;;
19747;SDS011;10032;51.386;12.516;2023-08-17T01:48:48;6.10;;;5.28;;
19747;SDS011;10032;51.386;12.516;2023-08-17T01:51:17;6.30;;;5.15;;
19747;SDS011;10032;51.386;12.516;2023-08-17T01:53:45;6.28;;;5.68;;
19747;SDS011;10032;51.386;12.516;2023-08-17T01:56:10;5.80;;;5.18;;
19747;SDS011;10032;51.386;12.516;2023-08-17T01:58:36;4.80;;;4.43;;
19747;SDS011;10032;51.386;12.516;2023-08-17T02:01:01;5.65;;;4.97;;
19747;SDS011;10032;51.386;12.516;2023-08-17T02:03:27;6.90;;;5.30;;
19747;SDS011;10032;51.386;12.516;2023-08-17T02:05:55;6.53;;;5.93;;
19747;SDS011;10032;51.386;12.516;2023-08-17T02:08:21;6.38;;;5.70;;
19747;SDS011;10032;51.386;12.516;2023-08-17T02:10:46;7.43;;;6.03;;
19747;SDS011;10032;51.386;12.516;2023-08-17T02:13:11;5.88;;;5.10;;
19747;SDS011;10032;51.386;12.516;2023-08-17T02:15:38;6.38;;;5.00;;
19747;SDS011;10032;51.386;12.516;2023-08-17T02:18:04;7.95;;;5.60;;
19747;SDS011;10032;51.386;12.516;2023-08-17T02:20:29;5.43;;;4.90;;
19747;SDS011;10032;51.386;12.516;2023-08-17T02:22:55;6.20;;;5.60;;
19747;SDS011;10032;51.386;12.516;2023-08-17T02:25:20;4.82;;;4.43;;
19747;SDS011;10032;51.386;12.516;2023-08-17T02:27:46;6.50;;;5.55;;
19747;SDS011;10032;51.386;12.516;2023-08-17T02:30:11;5.35;;;4.85;;
19747;SDS011;10032;51.386;12.516;2023-08-17T02:32:37;5.85;;;4.75;;
19747;SDS011;10032;51.386;12.516;2023-08-17T02:35:03;5.78;;;5.22;;
19747;SDS011;10032;51.386;12.516;2023-08-17T02:37:28;6.43;;;5.25;;
19747;SDS011;10032;51.386;12.516;2023-08-17T02:39:54;5.88;;;5.38;;
19747;SDS011;10032;51.386;12.516;2023-08-17T02:42:19;7.03;;;4.78;;
19747;SDS011;10032;51.386;12.516;2023-08-17T02:44:45;5.55;;;5.05;;
19747;SDS011;10032;51.386;12.516;2023-08-17T02:47:10;7.75;;;5.28;;
19747;SDS011;10032;51.386;12.516;2023-08-17T02:49:36;5.03;;;4.53;;
19747;SDS011;10032;51.386;12.516;2023-08-17T02:52:01;5.38;;;4.88;;
19747;SDS011;10032;51.386;12.516;2023-08-17T02:54:27;8.25;;;4.88;;
19747;SDS011;10032;51.386;12.516;2023-08-17T02:56:52;5.50;;;5.00;;
19747;SDS011;10032;51.386;12.516;2023-08-17T02:59:17;5.85;;;4.57;;
19747;SDS011;10032;51.386;12.516;2023-08-17T03:01:43;5.25;;;4.75;;
19747;SDS011;10032;51.386;12.516;2023-08-17T03:04:10;3.50;;;3.08;;
19747;SDS011;10032;51.386;12.516;2023-08-17T03:06:35;2.33;;;2.13;;
19747;SDS011;10032;51.386;12.516;2023-08-17T03:09:01;2.42;;;2.13;;
19747;SDS011;10032;51.386;12.516;2023-08-17T03:11:26;1.73;;;1.63;;
19747;SDS011;10032;51.386;12.516;2023-08-17T03:13:51;1.65;;;1.50;;
19747;SDS011;10032;51.386;12.516;2023-08-17T03:16:19;1.80;;;1.70;;
19747;SDS011;10032;51.386;12.516;2023-08-17T03:18:44;2.10;;;1.50;;
19747;SDS011;10032;51.386;12.516;2023-08-17T03:21:09;1.27;;;1.20;;
19747;SDS011;10032;51.386;12.516;2023-08-17T03:23:35;1.20;;;1.10;;
19747;SDS011;10032;51.386;12.516;2023-08-17T03:26:00;0.85;;;0.82;;
19747;SDS011;10032;51.386;12.516;2023-08-17T03:28:26;3.40;;;1.13;;
19747;SDS011;10032;51.386;12.516;2023-08-17T03:30:55;1.63;;;1.02;;
19747;SDS011;10032;51.386;12.516;2023-08-17T03:33:21;1.00;;;0.75;;
19747;SDS011;10032;51.386;12.516;2023-08-17T03:35:46;1.48;;;1.13;;
19747;SDS011;10032;51.386;12.516;2023-08-17T03:38:12;1.02;;;1.00;;
19747;SDS011;10032;51.386;12.516;2023-08-17T03:40:38;1.15;;;0.90;;
19747;SDS011;10032;51.386;12.516;2023-08-17T03:43:03;0.82;;;0.80;;
19747;SDS011;10032;51.386;12.516;2023-08-17T03:45:29;1.88;;;1.08;;
19747;SDS011;10032;51.386;12.516;2023-08-17T03:47:55;1.42;;;1.33;;
19747;SDS011;10032;51.386;12.516;2023-08-17T03:50:21;1.63;;;1.08;;
19747;SDS011;10032;51.386;12.516;2023-08-17T03:52:46;0.80;;;0.80;;
19747;SDS011;10032;51.386;12.516;2023-08-17T03:55:12;2.05;;;0.80;;
19747;SDS011;10032;51.386;12.516;2023-08-17T03:57:37;0.70;;;0.70;;
19747;SDS011;10032;51.386;12.516;2023-08-17T04:00:03;1.13;;;1.08;;
19747;SDS011;10032;51.386;12.516;2023-08-17T04:02:31;0.77;;;0.77;;
19747;SDS011;10032;51.386;12.516;2023-08-17T04:04:56;2.10;;;1.40;;
19747;SDS011;10032;51.386;12.516;2023-08-17T04:07:22;1.10;;;0.82;;
19747;SDS011;10032;51.386;12.516;2023-08-17T04:09:48;1.30;;;1.20;;
19747;SDS011;10032;51.386;12.516;2023-08-17T04:12:14;1.08;;;0.70;;
19747;SDS011;10032;51.386;12.516;2023-08-17T04:14:39;1.05;;;1.02;;
19747;SDS011;10032;51.386;12.516;2023-08-17T04:17:04;1.23;;;1.08;;
19747;SDS011;10032;51.386;12.516;2023-08-17T04:19:30;1.27;;;1.17;;
19747;SDS011;10032;51.386;12.516;2023-08-17T04:21:55;1.20;;;1.10;;
19747;SDS011;10032;51.386;12.516;2023-08-17T04:24:21;1.17;;;1.17;;
19747;SDS011;10032;51.386;12.516;2023-08-17T04:26:46;1.90;;;1.20;;
19747;SDS011;10032;51.386;12.516;2023-08-17T04:29:11;1.15;;;0.98;;
19747;SDS011;10032;51.386;12.516;2023-08-17T04:31:37;1.67;;;1.10;;
19747;SDS011;10032;51.386;12.516;2023-08-17T04:34:03;1.33;;;1.23;;
19747;SDS011;10032;51.386;12.516;2023-08-17T04:36:28;1.27;;;1.17;;
19747;SDS011;10032;51.386;12.516;2023-08-17T04:38:54;1.90;;;1.00;;
19747;SDS011;10032;51.386;12.516;2023-08-17T05:04:59;2.17;;;1.55;;
19747;SDS011;10032;51.386;12.516;2023-08-17T05:07:25;1.58;;;1.27;;
19747;SDS011;10032;51.386;12.516;2023-08-17T05:09:53;2.83;;;1.25;;
19747;SDS011;10032;51.386;12.516;2023-08-17T05:12:19;1.20;;;1.10;;
19747;SDS011;10032;51.386;12.516;2023-08-17T05:14:49;1.15;;;1.05;;
19747;SDS011;10032;51.386;12.516;2023-08-17T05:17:24;1.05;;;1.02;;
19747;SDS011;10032;51.386;12.516;2023-08-17T05:19:49;1.45;;;1.33;;
19747;SDS011;10032;51.386;12.516;2023-08-17T05:22:15;1.08;;;1.08;;
19747;SDS011;10032;51.386;12.516;2023-08-17T05:24:40;3.40;;;1.35;;
19747;SDS011;10032;51.386;12.516;2023-08-17T05:27:09;1.33;;;1.23;;
19747;SDS011;10032;51.386;12.516;2023-08-17T05:29:37;1.63;;;1.20;;
19747;SDS011;10032;51.386;12.516;2023-08-17T05:32:05;1.65;;;1.30;;
19747;SDS011;10032;51.386;12.516;2023-08-17T05:34:33;2.08;;;1.40;;
19747;SDS011;10032;51.386;12.516;2023-08-17T05:37:07;1.67;;;1.27;;
19747;SDS011;10032;51.386;12.516;2023-08-17T05:39:36;1.75;;;1.23;;
19747;SDS011;10032;51.386;12.516;2023-08-17T05:42:01;2.88;;;1.63;;
19747;SDS011;10032;51.386;12.516;2023-08-17T05:44:27;1.30;;;1.20;;
19747;SDS011;10032;51.386;12.516;2023-08-17T05:47:02;1.85;;;1.48;;
19747;SDS011;10032;51.386;12.516;2023-08-17T05:49:38;0.95;;;0.95;;
19747;SDS011;10032;51.386;12.516;2023-08-17T05:52:07;1.88;;;1.55;;
19747;SDS011;10032;51.386;12.516;2023-08-17T05:54:55;2.40;;;1.42;;
19747;SDS011;10032;51.386;12.516;2023-08-17T05:57:20;1.50;;;1.40;;
19747;SDS011;10032;51.386;12.516;2023-08-17T05:59:46;1.85;;;1.67;;
19747;SDS011;10032;51.386;12.516;2023-08-17T06:05:03;2.67;;;2.47;;
19747;SDS011;10032;51.386;12.516;2023-08-17T06:13:40;4.65;;;3.63;;
19747;SDS011;10032;51.386;12.516;2023-08-17T06:16:16;4.10;;;3.70;;
19747;SDS011;10032;51.386;12.516;2023-08-17T06:18:42;5.82;;;4.82;;
19747;SDS011;10032;51.386;12.516;2023-08-17T06:21:07;5.00;;;4.50;;
19747;SDS011;10032;51.386;12.516;2023-08-17T06:23:33;6.75;;;5.60;;
19747;SDS011;10032;51.386;12.516;2023-08-17T06:25:59;5.68;;;5.18;;
19747;SDS011;10032;51.386;12.516;2023-08-17T06:28:25;5.13;;;4.63;;
19747;SDS011;10032;51.386;12.516;2023-08-17T06:30:55;5.55;;;5.05;;
19747;SDS011;10032;51.386;12.516;2023-08-17T06:33:21;6.43;;;5.45;;
19747;SDS011;10032;51.386;12.516;2023-08-17T06:35:50;6.70;;;5.93;;
19747;SDS011;10032;51.386;12.516;2023-08-17T06:38:26;7.60;;;5.32;;
19747;SDS011;10032;51.386;12.516;2023-08-17T06:40:51;6.32;;;5.63;;
19747;SDS011;10032;51.386;12.516;2023-08-17T06:43:23;7.05;;;5.90;;
19747;SDS011;10032;51.386;12.516;2023-08-17T06:46:01;6.72;;;5.57;;
19747;SDS011;10032;51.386;12.516;2023-08-17T06:48:27;7.10;;;6.40;;
19747;SDS011;10032;51.386;12.516;2023-08-17T06:50:53;6.28;;;5.68;;
19747;SDS011;10032;51.386;12.516;2023-08-17T06:53:36;7.22;;;6.45;;
19747;SDS011;10032;51.386;12.516;2023-08-17T06:56:19;6.90;;;6.28;;
19747;SDS011;10032;51.386;12.516;2023-08-17T06:58:48;7.25;;;6.55;;
19747;SDS011;10032;51.386;12.516;2023-08-17T07:01:19;6.88;;;6.28;;
19747;SDS011;10032;51.386;12.516;2023-08-17T07:03:57;7.05;;;6.38;;
19747;SDS011;10032;51.386;12.516;2023-08-17T07:06:56;7.25;;;6.40;;
19747;SDS011;10032;51.386;12.516;2023-08-17T07:09:21;7.82;;;7.13;;
19747;SDS011;10032;51.386;12.516;2023-08-17T07:12:05;8.23;;;7.32;;
19747;SDS011;10032;51.386;12.516;2023-08-17T07:14:51;8.60;;;7.75;;
19747;SDS011;10032;51.386;12.516;2023-08-17T07:17:24;9.57;;;8.57;;
19747;SDS011;10032;51.386;12.516;2023-08-17T07:19:50;9.02;;;8.18;;
19747;SDS011;10032;51.386;12.516;2023-08-17T07:22:54;9.80;;;8.10;;
19747;SDS011;10032;51.386;12.516;2023-08-17T08:01:12;9.70;;;7.95;;
19747;SDS011;10032;51.386;12.516;2023-08-17T08:03:41;9.23;;;8.25;;
19747;SDS011;10032;51.386;12.516;2023-08-17T08:06:12;12.32;;;8.00;;
19747;SDS011;10032;51.386;12.516;2023-08-17T08:08:40;8.98;;;7.82;;
19747;SDS011;10032;51.386;12.516;2023-08-17T08:13:56;8.60;;;7.80;;
19747;SDS011;10032;51.386;12.516;2023-08-17T08:19:06;8.50;;;7.70;;
19747;SDS011;10032;51.386;12.516;2023-08-17T08:21:53;9.60;;;7.95;;
19747;SDS011;10032;51.386;12.516;2023-08-17T08:24:20;9.10;;;8.15;;
19747;SDS011;10032;51.386;12.516;2023-08-17T08:26:48;8.32;;;7.47;;
19747;SDS011;10032;51.386;12.516;2023-08-17T08:35:29;8.52;;;6.60;;
19747;SDS011;10032;51.386;12.516;2023-08-17T08:37:55;7.15;;;6.45;;
19747;SDS011;10032;51.386;12.516;2023-08-17T08:40:32;8.52;;;6.80;;
19747;SDS011;10032;51.386;12.516;2023-08-17T08:43:07;10.13;;;7.03;;
19747;SDS011;10032;51.386;12.516;2023-08-17T08:45:36;7.15;;;6.43;;
19747;SDS011;10032;51.386;12.516;2023-08-17T09:00:31;6.30;;;5.70;;
19747;SDS011;10032;51.386;12.516;2023-08-17T09:06:31;6.55;;;5.95;;
19747;SDS011;10032;51.386;12.516;2023-08-17T09:09:38;6.28;;;5.32;;
19747;SDS011;10032;51.386;12.516;2023-08-17T09:15:44;6.68;;;5.65;;
19747;SDS011;10032;51.386;12.516;2023-08-17T09:18:36;6.90;;;5.55;;
19747;SDS011;10032;51.386;12.516;2023-08-17T09:21:30;6.93;;;5.38;;
19747;SDS011;10032;51.386;12.516;2023-08-17T09:24:16;6.70;;;5.53;;
19747;SDS011;10032;51.386;12.516;2023-08-17T09:26:44;7.32;;;5.35;;
19747;SDS011;10032;51.386;12.516;2023-08-17T09:29:24;5.68;;;5.18;;
19747;SDS011;10032;51.386;12.516;2023-08-17T09:32:11;9.23;;;5.82;;
19747;SDS011;10032;51.386;12.516;2023-08-17T09:34:41;5.50;;;5.00;;
19747;SDS011;10032;51.386;12.516;2023-08-17T09:37:07;5.47;;;4.97;;
19747;SDS011;10032;51.386;12.516;2023-08-17T09:39:49;8.40;;;4.85;;
19747;SDS011;10032;51.386;12.516;2023-08-17T09:42:15;5.40;;;4.57;;
19747;SDS011;10032;51.386;12.516;2023-08-17T09:44:44;8.50;;;5.93;;
19747;SDS011;10032;51.386;12.516;2023-08-17T09:47:10;6.75;;;5.18;;
19747;SDS011;10032;51.386;12.516;2023-08-17T09:49:36;7.05;;;5.60;;
19747;SDS011;10032;51.386;12.516;2023-08-17T09:52:01;8.00;;;5.57;;
19747;SDS011;10032;51.386;12.516;2023-08-17T09:54:30;6.20;;;5.57;;
19747;SDS011;10032;51.386;12.516;2023-08-17T09:56:57;6.72;;;6.03;;
19747;SDS011;10032;51.386;12.516;2023-08-17T09:59:23;5.70;;;5.10;;
19747;SDS011;10032;51.386;12.516;2023-08-17T10:01:50;6.20;;;5.40;;
19747;SDS011;10032;51.386;12.516;2023-08-17T10:04:22;7.65;;;5.93;;
19747;SDS011;10032;51.386;12.516;2023-08-17T10:06:51;5.85;;;5.25;;
19747;SDS011;10032;51.386;12.516;2023-08-17T10:09:23;5.93;;;5.32;;
19747;SDS011;10032;51.386;12.516;2023-08-17T10:11:53;6.00;;;5.40;;
19747;SDS011;10032;51.386;12.516;2023-08-17T10:14:31;5.88;;;5.20;;
19747;SDS011;10032;51.386;12.516;2023-08-17T10:17:02;6.13;;;5.53;;
19747;SDS011;10032;51.386;12.516;2023-08-17T10:24:58;11.30;;;5.50;;
19747;SDS011;10032;51.386;12.516;2023-08-17T10:27:26;5.65;;;5.15;;
19747;SDS011;10032;51.386;12.516;2023-08-17T10:29:52;5.95;;;4.97;;
19747;SDS011;10032;51.386;12.516;2023-08-17T10:32:17;6.15;;;5.57;;
19747;SDS011;10032;51.386;12.516;2023-08-17T10:34:46;9.65;;;5.22;;
19747;SDS011;10032;51.386;12.516;2023-08-17T10:37:13;7.05;;;5.18;;
19747;SDS011;10032;51.386;12.516;2023-08-17T10:39:44;7.57;;;5.82;;
19747;SDS011;10032;51.386;12.516;2023-08-17T10:42:11;6.63;;;6.03;;
19747;SDS011;10032;51.386;12.516;2023-08-17T10:49:55;8.45;;;5.70;;
19747;SDS011;10032;51.386;12.516;2023-08-17T10:52:26;6.25;;;5.65;;
19747;SDS011;10032;51.386;12.516;2023-08-17T10:54:52;6.20;;;5.22;;
19747;SDS011;10032;51.386;12.516;2023-08-17T10:57:28;5.75;;;5.00;;
19747;SDS011;10032;51.386;12.516;2023-08-17T11:02:45;6.32;;;5.60;;
19747;SDS011;10032;51.386;12.516;2023-08-17T11:08:05;8.02;;;6.03;;
19747;SDS011;10032;51.386;12.516;2023-08-17T11:10:34;6.03;;;5.43;;
19747;SDS011;10032;51.386;12.516;2023-08-17T11:12:59;6.53;;;5.60;;
19747;SDS011;10032;51.386;12.516;2023-08-17T11:15:28;6.13;;;5.57;;
19747;SDS011;10032;51.386;12.516;2023-08-17T11:18:03;7.82;;;5.55;;
19747;SDS011;10032;51.386;12.516;2023-08-17T11:20:29;6.10;;;5.18;;
19747;SDS011;10032;51.386;12.516;2023-08-17T11:22:54;6.15;;;5.55;;
19747;SDS011;10032;51.386;12.516;2023-08-17T11:25:20;7.70;;;5.40;;
19747;SDS011;10032;51.386;12.516;2023-08-17T11:27:45;6.72;;;5.35;;
19747;SDS011;10032;51.386;12.516;2023-08-17T11:30:12;6.57;;;5.55;;
19747;SDS011;10032;51.386;12.516;2023-08-17T11:32:37;5.93;;;5.32;;
19747;SDS011;10032;51.386;12.516;2023-08-17T11:35:03;5.97;;;5.38;;
19747;SDS011;10032;51.386;12.516;2023-08-17T11:37:29;5.97;;;5.38;;
19747;SDS011;10032;51.386;12.516;2023-08-17T11:39:54;6.03;;;5.40;;
19747;SDS011;10032;51.386;12.516;2023-08-17T11:42:19;6.47;;;5.32;;
19747;SDS011;10032;51.386;12.516;2023-08-17T11:44:45;6.45;;;5.72;;
19747;SDS011;10032;51.386;12.516;2023-08-17T11:47:10;7.57;;;5.78;;
19747;SDS011;10032;51.386;12.516;2023-08-17T11:49:36;8.43;;;6.05;;
19747;SDS011;10032;51.386;12.516;2023-08-17T11:52:02;5.80;;;4.95;;
19747;SDS011;10032;51.386;12.516;2023-08-17T11:54:27;5.82;;;5.18;;
19747;SDS011;10032;51.386;12.516;2023-08-17T11:56:53;5.93;;;5.43;;
19747;SDS011;10032;51.386;12.516;2023-08-17T11:59:18;5.45;;;4.95;;
19747;SDS011;10032;51.386;12.516;2023-08-17T12:01:44;8.48;;;6.30;;
19747;SDS011;10032;51.386;12.516;2023-08-17T12:04:10;5.60;;;5.10;;
19747;SDS011;10032;51.386;12.516;2023-08-17T12:06:43;8.73;;;5.78;;
19747;SDS011;10032;51.386;12.516;2023-08-17T12:09:10;5.68;;;5.18;;
19747;SDS011;10032;51.386;12.516;2023-08-17T12:11:37;7.32;;;5.32;;
19747;SDS011;10032;51.386;12.516;2023-08-17T12:14:09;7.32;;;5.75;;
19747;SDS011;10032;51.386;12.516;2023-08-17T12:16:48;6.10;;;5.50;;
19747;SDS011;10032;51.386;12.516;2023-08-17T12:19:14;6.25;;;5.65;;
19747;SDS011;10032;51.386;12.516;2023-08-17T12:21:40;6.43;;;5.57;;
19747;SDS011;10032;51.386;12.516;2023-08-17T12:24:08;6.10;;;5.38;;
19747;SDS011;10032;51.386;12.516;2023-08-17T12:26:34;6.13;;;5.38;;
19747;SDS011;10032;51.386;12.516;2023-08-17T12:29:00;7.18;;;5.30;;
19747;SDS011;10032;51.386;12.516;2023-08-17T12:31:29;6.70;;;5.38;;
19747;SDS011;10032;51.386;12.516;2023-08-17T12:33:54;5.93;;;5.28;;
19747;SDS011;10032;51.386;12.516;2023-08-17T12:36:20;5.70;;;5.20;;
19747;SDS011;10032;51.386;12.516;2023-08-17T12:38:46;5.55;;;4.90;;
19747;SDS011;10032;51.386;12.516;2023-08-17T12:41:13;5.78;;;5.25;;
19747;SDS011;10032;51.386;12.516;2023-08-17T12:43:38;7.72;;;5.38;;
19747;SDS011;10032;51.386;12.516;2023-08-17T12:46:04;5.65;;;5.10;;
19747;SDS011;10032;51.386;12.516;2023-08-17T12:48:29;5.70;;;5.20;;
19747;SDS011;10032;51.386;12.516;2023-08-17T12:50:55;6.10;;;5.50;;
19747;SDS011;10032;51.386;12.516;2023-08-17T12:53:21;6.05;;;5.10;;
19747;SDS011;10032;51.386;12.516;2023-08-17T12:55:46;5.57;;;5.07;;
19747;SDS011;10032;51.386;12.516;2023-08-17T12:58:12;5.32;;;4.82;;
19747;SDS011;10032;51.386;12.516;2023-08-17T13:00:37;5.85;;;5.25;;
19747;SDS011;10032;51.386;12.516;2023-08-17T13:03:03;5.72;;;5.22;;
19747;SDS011;10032;51.386;12.516;2023-08-17T13:05:28;6.60;;;5.40;;
19747;SDS011;10032;51.386;12.516;2023-08-17T13:07:54;6.00;;;5.50;;
19747;SDS011;10032;51.386;12.516;2023-08-17T13:10:19;5.72;;;5.22;;
19747;SDS011;10032;51.386;12.516;2023-08-17T13:12:44;6.47;;;5.88;;
19747;SDS011;10032;51.386;12.516;2023-08-17T13:15:12;6.13;;;5.35;;
19747;SDS011;10032;51.386;12.516;2023-08-17T13:17:37;5.97;;;5.47;;
19747;SDS011;10032;51.386;12.516;2023-08-17T13:20:03;5.75;;;5.13;;
19747;SDS011;10032;51.386;12.516;2023-08-17T13:22:30;6.25;;;5.75;;
19747;SDS011;10032;51.386;12.516;2023-08-17T13:24:56;6.13;;;5.53;;
19747;SDS011;10032;51.386;12.516;2023-08-17T13:27:21;6.38;;;5.07;;
19747;SDS011;10032;51.386;12.516;2023-08-17T13:29:47;6.95;;;5.25;;
19747;SDS011;10032;51.386;12.516;2023-08-17T13:32:12;7.88;;;5.78;;
19747;SDS011;10032;51.386;12.516;2023-08-17T13:34:37;5.70;;;5.20;;
19747;SDS011;10032;51.386;12.516;2023-08-17T13:37:03;5.82;;;5.22;;
19747;SDS011;10032;51.386;12.516;2023-08-17T13:39:28;6.20;;;5.43;;
19747;SDS011;10032;51.386;12.516;2023-08-17T13:41:54;5.93;;;5.32;;
19747;SDS011;10032;51.386;12.516;2023-08-17T13:44:19;5.80;;;5.30;;
19747;SDS011;10032;51.386;12.516;2023-08-17T13:46:45;5.53;;;5.03;;
19747;SDS011;10032;51.386;12.516;2023-08-17T13:49:10;5.97;;;5.22;;
19747;SDS011;10032;51.386;12.516;2023-08-17T13:51:35;5.60;;;5.13;;
19747;SDS011;10032;51.386;12.516;2023-08-17T13:54:01;5.72;;;5.22;;
19747;SDS011;10032;51.386;12.516;2023-08-17T13:56:26;5.63;;;5.13;;
19747;SDS011;10032;51.386;12.516;2023-08-17T13:58:52;5.50;;;5.07;;
19747;SDS011;10032;51.386;12.516;2023-08-17T14:01:17;5.53;;;5.03;;
19747;SDS011;10032;51.386;12.516;2023-08-17T14:03:43;6.07;;;5.57;;
19747;SDS011;10032;51.386;12.516;2023-08-17T14:06:09;6.22;;;5.72;;
19747;SDS011;10032;51.386;12.516;2023-08-17T14:08:34;5.78;;;5.28;;
19747;SDS011;10032;51.386;12.516;2023-08-17T14:10:59;6.03;;;5.43;;
19747;SDS011;10032;51.386;12.516;2023-08-17T14:13:25;5.63;;;5.13;;
19747;SDS011;10032;51.386;12.516;2023-08-17T14:15:51;5.93;;;5.43;;
19747;SDS011;10032;51.386;12.516;2023-08-17T14:18:16;5.97;;;5.47;;
19747;SDS011;10032;51.386;12.516;2023-08-17T14:20:41;5.95;;;5.45;;
19747;SDS011;10032;51.386;12.516;2023-08-17T14:23:07;5.65;;;5.15;;
19747;SDS011;10032;51.386;12.516;2023-08-17T14:25:32;5.97;;;5.43;;
19747;SDS011;10032;51.386;12.516;2023-08-17T14:27:58;6.78;;;5.47;;
19747;SDS011;10032;51.386;12.516;2023-08-17T14:30:24;6.07;;;4.70;;
19747;SDS011;10032;51.386;12.516;2023-08-17T14:32:51;5.85;;;5.35;;
19747;SDS011;10032;51.386;12.516;2023-08-17T14:35:16;5.88;;;5.38;;
19747;SDS011;10032;51.386;12.516;2023-08-17T14:37:42;5.57;;;5.07;;
19747;SDS011;10032;51.386;12.516;2023-08-17T14:40:07;5.65;;;5.10;;
19747;SDS011;10032;51.386;12.516;2023-08-17T14:42:33;5.75;;;5.15;;
19747;SDS011;10032;51.386;12.516;2023-08-17T14:44:58;6.95;;;5.15;;
19747;SDS011;10032;51.386;12.516;2023-08-17T14:47:23;5.95;;;4.90;;
19747;SDS011;10032;51.386;12.516;2023-08-17T14:49:49;5.68;;;5.18;;
19747;SDS011;10032;51.386;12.516;2023-08-17T14:52:14;5.82;;;5.35;;
19747;SDS011;10032;51.386;12.516;2023-08-17T14:54:40;6.03;;;5.30;;
19747;SDS011;10032;51.386;12.516;2023-08-17T14:57:05;5.70;;;5.20;;
19747;SDS011;10032;51.386;12.516;2023-08-17T14:59:31;5.70;;;5.15;;
19747;SDS011;10032;51.386;12.516;2023-08-17T15:01:56;5.55;;;5.05;;
19747;SDS011;10032;51.386;12.516;2023-08-17T15:04:22;5.57;;;5.07;;
19747;SDS011;10032;51.386;12.516;2023-08-17T15:06:47;8.02;;;5.93;;
19747;SDS011;10032;51.386;12.516;2023-08-17T15:09:13;6.05;;;5.47;;
19747;SDS011;10032;51.386;12.516;2023-08-17T15:11:39;5.75;;;5.03;;
19747;SDS011;10032;51.386;12.516;2023-08-17T15:14:04;6.45;;;5.47;;
19747;SDS011;10032;51.386;12.516;2023-08-17T15:16:30;5.88;;;5.28;;
19747;SDS011;10032;51.386;12.516;2023-08-17T15:18:55;5.70;;;5.20;;
19747;SDS011;10032;51.386;12.516;2023-08-17T15:21:21;6.70;;;6.05;;
19747;SDS011;10032;51.386;12.516;2023-08-17T15:23:47;5.75;;;5.22;;
19747;SDS011;10032;51.386;12.516;2023-08-17T15:26:12;6.78;;;5.38;;
19747;SDS011;10032;51.386;12.516;2023-08-17T15:28:39;5.50;;;5.00;;
19747;SDS011;10032;51.386;12.516;2023-08-17T15:31:06;6.13;;;5.53;;
19747;SDS011;10032;51.386;12.516;2023-08-17T15:33:34;5.88;;;5.28;;
19747;SDS011;10032;51.386;12.516;2023-08-17T15:35:59;6.30;;;5.70;;
19747;SDS011;10032;51.386;12.516;2023-08-17T15:38:26;6.28;;;5.68;;
19747;SDS011;10032;51.386;12.516;2023-08-17T15:40:51;6.65;;;6.05;;
19747;SDS011;10032;51.386;12.516;2023-08-17T15:43:17;8.00;;;6.00;;
19747;SDS011;10032;51.386;12.516;2023-08-17T15:45:42;6.57;;;5.97;;
19747;SDS011;10032;51.386;12.516;2023-08-17T15:48:08;7.90;;;6.10;;
19747;SDS011;10032;51.386;12.516;2023-08-17T15:50:33;6.28;;;5.78;;
19747;SDS011;10032;51.386;12.516;2023-08-17T15:52:58;6.72;;;6.10;;
19747;SDS011;10032;51.386;12.516;2023-08-17T15:55:24;6.15;;;5.60;;
19747;SDS011;10032;51.386;12.516;2023-08-17T15:57:49;6.63;;;5.68;;
19747;SDS011;10032;51.386;12.516;2023-08-17T16:00:14;6.20;;;5.60;;
19747;SDS011;10032;51.386;12.516;2023-08-17T16:02:40;6.75;;;5.45;;
19747;SDS011;10032;51.386;12.516;2023-08-17T16:05:05;6.22;;;5.63;;
19747;SDS011;10032;51.386;12.516;2023-08-17T16:07:31;5.78;;;5.28;;
19747;SDS011;10032;51.386;12.516;2023-08-17T16:09:57;6.15;;;5.55;;
19747;SDS011;10032;51.386;12.516;2023-08-17T16:12:22;7.07;;;6.38;;
19747;SDS011;10032;51.386;12.516;2023-08-17T16:14:47;6.60;;;6.00;;
19747;SDS011;10032;51.386;12.516;2023-08-17T16:17:13;6.32;;;5.72;;
19747;SDS011;10032;51.386;12.516;2023-08-17T16:19:38;6.38;;;5.78;;
19747;SDS011;10032;51.386;12.516;2023-08-17T16:22:04;7.30;;;5.55;;
19747;SDS011;10032;51.386;12.516;2023-08-17T16:24:29;5.95;;;5.43;;
19747;SDS011;10032;51.386;12.516;2023-08-17T16:26:54;6.28;;;5.68;;
19747;SDS011;10032;51.386;12.516;2023-08-17T16:29:20;6.63;;;6.05;;
19747;SDS011;10032;51.386;12.516;2023-08-17T16:31:45;6.57;;;5.97;;
19747;SDS011;10032;51.386;12.516;2023-08-17T16:34:24;6.65;;;6.05;;